Time;durP1;ratioP1;P1;durP2;ratioP2;P2;SDS_P1;SDS_P2;PMS_P1;PMS_P2;Temp;Humidity;BMP_temperature;BMP_pressure;BME280_temperature;BME280_humidity;BME280_pressure;Samples;Min_cycle;Max_cycle;Signal;HPM_P1;HPM_P2
2021/07/06 00:00:01;;;;;;;4.03;3.07;;;19.20;99.90;;;;;;5085571;28;20445;-77
2021/07/06 00:02:28;;;;;;;3.70;3.40;;;19.20;99.90;;;;;;5088098;28;20461;-77
2021/07/06 00:04:59;;;;;;;3.50;3.20;;;19.10;99.90;;;;;;5087846;28;20504;-77
2021/07/06 00:07:26;;;;;;;2.93;2.73;;;19.00;99.90;;;;;;5087860;28;20434;-77
2021/07/06 00:09:53;;;;;;;5.37;3.70;;;19.00;99.90;;;;;;5082669;28;20445;-77
2021/07/06 00:12:20;;;;;;;6.47;3.50;;;19.00;99.90;;;;;;5083733;28;20487;-77
2021/07/06 00:14:47;;;;;;;3.77;3.37;;;19.00;99.90;;;;;;5081925;28;20452;-79
2021/07/06 00:17:14;;;;;;;4.13;3.73;;;19.10;99.90;;;;;;5078070;28;20440;-79
2021/07/06 00:19:40;;;;;;;4.10;3.30;;;19.00;99.90;;;;;;5076431;28;20472;-77
2021/07/06 00:22:09;;;;;;;3.67;3.40;;;18.90;99.90;;;;;;5075418;28;20986;-79
2021/07/06 00:24:35;;;;;;;4.20;3.30;;;18.90;99.90;;;;;;5078109;28;20459;-79
2021/07/06 00:27:02;;;;;;;5.00;2.93;;;18.90;99.90;;;;;;5077975;28;20479;-79
2021/07/06 00:29:29;;;;;;;3.17;2.97;;;19.00;99.90;;;;;;5078675;28;20509;-79
2021/07/06 00:31:56;;;;;;;4.47;3.30;;;19.00;99.90;;;;;;5079639;28;20473;-78
2021/07/06 00:34:23;;;;;;;2.90;2.70;;;19.00;99.90;;;;;;5082486;28;20494;-77
2021/07/06 00:36:50;;;;;;;3.30;3.00;;;19.10;99.90;;;;;;5081279;28;20445;-79
2021/07/06 00:39:18;;;;;;;3.13;2.73;;;19.00;99.90;;;;;;5078382;28;20453;-79
2021/07/06 00:41:45;;;;;;;3.67;3.37;;;19.00;99.90;;;;;;5077280;28;20864;-79
2021/07/06 00:44:14;;;;;;;3.10;2.87;;;19.00;99.90;;;;;;5076245;28;20813;-78
2021/07/06 00:46:40;;;;;;;2.67;2.47;;;19.00;99.90;;;;;;5076694;28;20804;-78
2021/07/06 00:49:07;;;;;;;3.30;3.00;;;19.00;99.90;;;;;;5075365;28;20995;-78
2021/07/06 00:51:34;;;;;;;3.47;3.27;;;19.10;99.90;;;;;;5075540;28;20848;-78
2021/07/06 00:54:01;;;;;;;3.40;3.00;;;19.00;99.90;;;;;;5075564;28;20487;-78
2021/07/06 00:56:30;;;;;;;3.20;2.90;;;19.00;99.90;;;;;;5075837;28;20475;-78
2021/07/06 00:58:56;;;;;;;6.60;3.83;;;19.00;99.90;;;;;;5075779;28;20880;-78
2021/07/06 01:01:23;;;;;;;3.30;3.07;;;19.00;99.90;;;;;;5075585;28;20502;-78
2021/07/06 01:03:50;;;;;;;3.40;2.87;;;19.40;99.90;;;;;;5075990;28;20441;-78
2021/07/06 01:06:16;;;;;;;2.40;2.30;;;19.00;99.90;;;;;;5076498;28;20491;-78
2021/07/06 01:08:46;;;;;;;3.03;2.83;;;19.10;99.90;;;;;;5076091;28;20475;-78
2021/07/06 01:11:13;;;;;;;3.37;3.07;;;19.10;99.90;;;;;;5076709;28;20534;-77
2021/07/06 01:13:41;;;;;;;3.10;2.80;;;19.20;99.90;;;;;;5077027;28;20476;-78
2021/07/06 01:16:08;;;;;;;3.23;3.03;;;19.10;99.90;;;;;;5075911;28;20487;-79
2021/07/06 01:18:34;;;;;;;4.77;3.60;;;19.20;99.90;;;;;;5076484;28;20445;-78
2021/07/06 01:21:01;;;;;;;3.67;3.30;;;19.00;99.90;;;;;;5078279;28;20444;-77
2021/07/06 01:23:30;;;;;;;5.07;4.10;;;19.10;99.90;;;;;;5076992;28;20806;-78
2021/07/06 01:25:59;;;;;;;4.03;3.37;;;19.00;99.90;;;;;;5075327;28;20492;-77
2021/07/06 01:28:26;;;;;;;3.70;3.40;;;18.90;99.90;;;;;;5075249;28;20507;-77
2021/07/06 01:30:54;;;;;;;3.70;3.10;;;18.70;99.90;;;;;;5082546;28;20453;-77
2021/07/06 01:33:22;;;;;;;4.40;4.00;;;18.90;99.90;;;;;;5084825;28;20998;-77
2021/07/06 01:35:50;;;;;;;5.97;3.87;;;18.80;99.90;;;;;;5086149;28;20542;-76
2021/07/06 01:38:16;;;;;;;4.47;4.07;;;18.70;99.90;;;;;;5085681;28;20453;-78
2021/07/06 01:40:44;;;;;;;4.50;3.37;;;18.70;99.90;;;;;;5078012;28;20448;-78
2021/07/06 01:43:11;;;;;;;4.03;3.63;;;18.70;99.90;;;;;;5083066;28;20467;-76
2021/07/06 01:45:38;;;;;;;3.53;2.60;;;18.60;99.90;;;;;;5080984;28;20455;-77
2021/07/06 01:48:05;;;;;;;4.47;3.03;;;18.70;99.90;;;;;;5079012;28;20445;-78
2021/07/06 01:50:34;;;;;;;4.53;3.30;;;18.70;99.90;;;;;;5074988;28;20478;-78
2021/07/06 01:53:04;;;;;;;3.30;2.80;;;18.70;99.90;;;;;;5074598;28;20984;-77
2021/07/06 01:55:34;;;;;;;3.00;2.73;;;18.70;99.90;;;;;;5075146;28;20443;-78
2021/07/06 01:58:05;;;;;;;4.57;4.13;;;18.70;99.90;;;;;;5076439;28;20477;-77
2021/07/06 02:00:34;;;;;;;6.77;4.67;;;18.70;99.90;;;;;;5077873;28;20483;-77
2021/07/06 02:03:02;;;;;;;5.70;3.40;;;18.70;99.90;;;;;;5077516;28;20492;-77
2021/07/06 02:05:35;;;;;;;4.17;3.87;;;18.70;99.90;;;;;;5077943;28;20505;-77
2021/07/06 02:08:03;;;;;;;5.60;3.40;;;18.80;99.90;;;;;;5077132;28;20514;-77
2021/07/06 02:10:30;;;;;;;3.50;3.20;;;18.80;99.90;;;;;;5077234;28;20451;-77
2021/07/06 02:12:58;;;;;;;4.20;3.90;;;18.80;99.90;;;;;;5078425;28;20529;-77
2021/07/06 02:15:27;;;;;;;3.70;3.03;;;18.70;99.90;;;;;;5077548;28;20439;-77
2021/07/06 02:17:54;;;;;;;3.37;3.07;;;18.60;99.90;;;;;;5075571;28;20446;-77
2021/07/06 02:20:22;;;;;;;3.70;3.47;;;18.60;99.90;;;;;;5076800;28;20494;-77
2021/07/06 02:22:50;;;;;;;5.37;3.67;;;18.60;99.90;;;;;;5077490;28;20467;-77
2021/07/06 02:25:18;;;;;;;4.03;3.77;;;18.60;99.90;;;;;;5078338;28;20495;-77
2021/07/06 02:27:47;;;;;;;4.83;4.43;;;18.50;99.90;;;;;;5078469;28;20502;-78
2021/07/06 02:30:16;;;;;;;3.83;3.43;;;18.50;99.90;;;;;;5079166;28;20452;-77
2021/07/06 02:33:07;;;;;;;6.77;5.97;;;18.60;99.90;;;;;;5091144;22;20499;-79
2021/07/06 02:35:52;;;;;;;3.90;3.60;;;18.90;99.90;;;;;;5061239;28;20448;-79
2021/07/06 02:38:29;;;;;;;4.40;4.00;;;18.40;99.90;;;;;;5066956;28;20428;-79
2021/07/06 02:41:07;;;;;;;5.33;3.60;;;18.10;99.90;;;;;;5065944;28;20510;-80
2021/07/06 02:43:38;;;;;;;4.00;3.60;;;;;;;;;;5070588;28;20457;-79
2021/07/06 02:49:03;;;;;;;4.50;4.10;;;18.20;99.90;;;;;;5068128;28;20464;-79
2021/07/06 02:51:43;;;;;;;6.03;4.33;;;18.30;99.90;;;;;;5070742;28;20522;-79
2021/07/06 02:57:08;;;;;;;5.67;3.73;;;18.90;99.90;;;;;;5066142;28;20444;-79
2021/07/06 03:02:56;;;;;;;5.60;4.40;;;18.20;99.90;;;;;;5060900;28;20494;-78
2021/07/06 03:08:22;;;;;;;3.93;3.60;;;18.00;99.90;;;;;;5061780;28;20428;-79
2021/07/06 03:10:52;;;;;;;4.30;3.90;;;;;;;;;;5059527;28;20838;-79
2021/07/06 03:16:20;;;;;;;6.00;4.03;;;20.90;99.90;;;;;;5052272;28;20448;-79
2021/07/06 03:19:03;;;;;;;5.47;4.50;;;18.10;99.90;;;;;;5057983;28;20461;-79
2021/07/06 03:21:53;;;;;;;5.53;3.87;;;18.10;99.90;;;;;;5056840;28;20435;-79
2021/07/06 03:27:36;;;;;;;;;;;;;;;;;;;;;
2021/07/06 03:30:36;;;;;;;5.83;4.57;;;18.30;99.90;;;;;;5053778;28;20534;-79
2021/07/06 03:33:17;;;;;;;4.30;3.90;;;17.90;99.90;;;;;;5058558;28;20502;-79
2021/07/06 03:38:35;;;;;;;6.27;4.20;;;18.00;99.90;;;;;;5052321;28;20461;-80
2021/07/06 03:41:05;;;;;;;4.37;3.97;;;17.40;99.90;;;;;;5056860;28;20914;-79
2021/07/06 03:43:43;;;;;;;6.30;3.90;;;18.00;99.90;;;;;;5057156;28;20472;-79
2021/07/06 03:46:13;;;;;;;8.10;4.10;;;;;;;;;;5055046;28;20861;-79
2021/07/06 03:48:45;;;;;;;5.77;5.17;;;18.10;99.90;;;;;;5056568;28;20452;-79
2021/07/06 03:51:20;;;;;;;4.47;4.07;;;18.10;99.90;;;;;;5055786;28;20466;-79
2021/07/06 03:54:17;;;;;;;;;;;;;;;;;;;;;
2021/07/06 03:56:46;;;;;;;4.70;4.37;;;18.30;99.90;;;;;;5056526;28;20537;-79
2021/07/06 03:59:21;;;;;;;4.73;4.33;;;;;;;;;;5056901;28;20467;-80
2021/07/06 04:02:05;;;;;;;4.30;4.00;;;;;;;;;;5055745;28;20460;-79
2021/07/06 04:04:37;;;;;;;5.27;4.77;;;18.50;99.90;;;;;;5056327;28;20428;-79
2021/07/06 04:07:16;;;;;;;4.30;4.00;;;17.90;99.90;;;;;;5055046;28;20436;-80
2021/07/06 04:09:53;;;;;;;6.87;4.27;;;18.70;99.90;;;;;;5056076;28;20511;-79
2021/07/06 04:12:27;;;;;;;4.90;4.50;;;18.80;99.90;;;;;;5055079;28;21007;-79
2021/07/06 04:15:00;;;;;;;4.70;4.30;;;18.80;99.90;;;;;;5056254;28;20454;-79
2021/07/06 04:17:38;;;;;;;5.33;4.80;;;18.90;99.90;;;;;;5056481;28;20462;-79
2021/07/06 04:20:32;;;;;;;7.50;4.43;;;18.80;99.90;;;;;;5056346;28;20844;-79
2021/07/06 04:23:03;;;;;;;4.73;4.33;;;;;;;;;;5053876;28;20478;-80
2021/07/06 04:25:35;;;;;;;5.53;5.00;;;19.00;99.90;;;;;;5056444;28;20929;-80
2021/07/06 04:28:11;;;;;;;4.90;4.50;;;19.00;99.90;;;;;;5056199;28;21024;-80
2021/07/06 04:34:04;;;;;;;4.30;4.00;;;19.00;99.90;;;;;;5055402;28;20475;-79
2021/07/06 04:36:32;;;;;;;4.93;4.43;;;;;;;;;;5057376;28;20432;-79
2021/07/06 04:39:18;;;;;;;4.37;3.80;;;18.90;99.90;;;;;;5056294;28;20509;-80
2021/07/06 04:42:04;;;;;;;5.53;4.13;;;18.90;99.90;;;;;;5057181;28;20480;-80
2021/07/06 04:44:31;;;;;;;4.07;3.57;;;;;;;;;;5048972;28;20927;-80
2021/07/06 04:46:58;;;;;;;4.23;3.87;;;;;;;;;;5057700;28;20938;-80
2021/07/06 04:49:27;;;;;;;4.57;4.03;;;18.90;99.90;;;;;;5066446;28;20457;-80
2021/07/06 04:51:53;;;;;;;4.50;3.70;;;18.90;99.90;;;;;;5061668;28;20473;-79
2021/07/06 04:54:23;;;;;;;5.07;3.50;;;18.90;99.90;;;;;;5056405;28;20487;-79
2021/07/06 04:56:52;;;;;;;4.00;3.63;;;18.90;99.90;;;;;;5056392;28;20422;-80
2021/07/06 04:59:19;;;;;;;4.30;3.83;;;19.00;99.90;;;;;;5055948;28;20460;-80
2021/07/06 05:01:45;;;;;;;3.80;3.60;;;19.10;99.90;;;;;;5056408;28;20511;-79
2021/07/06 05:04:13;;;;;;;4.20;4.00;;;19.10;99.90;;;;;;5056186;28;20451;-79
2021/07/06 05:06:40;;;;;;;4.93;4.30;;;19.20;99.90;;;;;;5056617;28;20473;-80
2021/07/06 05:09:06;;;;;;;6.23;4.00;;;19.30;99.90;;;;;;5057444;28;20468;-79
2021/07/06 05:11:33;;;;;;;4.53;3.73;;;19.10;99.90;;;;;;5058829;28;20451;-80
2021/07/06 05:14:01;;;;;;;4.37;4.07;;;19.30;99.90;;;;;;5058436;28;20480;-80
2021/07/06 05:16:30;;;;;;;6.57;3.80;;;19.30;99.90;;;;;;5056006;28;20539;-79
2021/07/06 05:18:56;;;;;;;5.93;3.60;;;19.40;99.90;;;;;;5055245;28;20960;-79
2021/07/06 05:21:23;;;;;;;5.67;3.53;;;19.50;99.90;;;;;;5055626;28;20437;-78
2021/07/06 05:23:50;;;;;;;4.37;3.80;;;19.50;99.90;;;;;;5056096;28;20442;-79
2021/07/06 05:26:16;;;;;;;3.90;3.60;;;19.60;99.90;;;;;;5055883;28;20484;-80
2021/07/06 05:28:43;;;;;;;4.00;3.50;;;19.70;99.90;;;;;;5056217;28;20487;-80
2021/07/06 05:31:11;;;;;;;6.20;3.83;;;19.70;99.90;;;;;;5056348;28;20510;-80
2021/07/06 05:33:37;;;;;;;3.30;3.00;;;19.70;99.90;;;;;;5055721;28;20493;-80
2021/07/06 05:36:05;;;;;;;3.77;3.47;;;19.70;99.90;;;;;;5059557;28;20477;-79
2021/07/06 05:38:31;;;;;;;2.97;2.77;;;19.80;99.90;;;;;;5059861;28;20458;-79
2021/07/06 05:40:58;;;;;;;3.90;3.13;;;19.80;99.90;;;;;;5059500;28;20543;-80
2021/07/06 05:43:26;;;;;;;3.13;2.93;;;19.90;99.90;;;;;;5059546;28;20457;-79
2021/07/06 05:45:54;;;;;;;5.07;4.13;;;20.00;99.90;;;;;;5059429;28;20448;-79
2021/07/06 05:48:22;;;;;;;3.77;3.27;;;20.10;99.90;;;;;;5059485;28;20442;-79
2021/07/06 05:50:49;;;;;;;3.43;3.23;;;20.20;99.90;;;;;;5059714;28;20453;-79
2021/07/06 05:53:16;;;;;;;2.80;2.60;;;20.20;99.90;;;;;;5065402;28;20999;-79
2021/07/06 05:55:43;;;;;;;3.63;3.40;;;20.30;99.90;;;;;;5068139;28;20507;-80
2021/07/06 05:58:10;;;;;;;5.97;3.27;;;20.40;99.90;;;;;;5066105;28;20477;-79
2021/07/06 06:00:38;;;;;;;3.23;2.90;;;20.40;99.90;;;;;;5063595;28;20485;-80
2021/07/06 06:03:08;;;;;;;3.00;2.80;;;20.40;99.90;;;;;;5059821;28;20823;-80
2021/07/06 06:05:49;;;;;;;2.53;2.40;;;20.60;99.90;;;;;;5059306;28;20460;-80
2021/07/06 06:08:16;;;;;;;2.90;2.70;;;20.50;99.90;;;;;;5059494;28;20441;-80
2021/07/06 06:10:44;;;;;;;3.63;2.70;;;20.60;99.90;;;;;;5059149;28;20948;-80
2021/07/06 06:13:12;;;;;;;3.93;3.43;;;20.70;99.90;;;;;;5060148;28;21018;-80
2021/07/06 06:15:39;;;;;;;2.80;2.60;;;20.80;99.90;;;;;;5059276;28;20521;-80
2021/07/06 06:18:05;;;;;;;3.60;3.30;;;20.80;99.90;;;;;;5058653;28;20441;-79
2021/07/06 06:20:32;;;;;;;3.73;2.90;;;20.90;99.90;;;;;;5059423;28;20474;-80
2021/07/06 06:23:00;;;;;;;3.47;3.17;;;20.90;99.90;;;;;;5058986;28;20556;-80
2021/07/06 06:25:26;;;;;;;2.43;2.27;;;21.00;99.90;;;;;;5058596;28;20485;-80
2021/07/06 06:27:54;;;;;;;4.53;2.20;;;21.10;99.90;;;;;;5058512;28;20448;-79
2021/07/06 06:30:21;;;;;;;2.20;2.10;;;21.20;99.90;;;;;;5057237;28;20842;-79
2021/07/06 06:32:48;;;;;;;3.80;2.50;;;21.70;99.90;;;;;;5056285;28;20483;-79
2021/07/06 06:35:15;;;;;;;2.67;2.47;;;21.40;99.90;;;;;;5056281;28;20505;-80
2021/07/06 06:37:42;;;;;;;2.57;2.37;;;21.40;99.90;;;;;;5058908;28;20456;-79
2021/07/06 06:40:11;;;;;;;2.20;2.10;;;21.50;99.90;;;;;;5058740;28;20454;-79
2021/07/06 06:42:38;;;;;;;2.47;2.27;;;21.50;99.90;;;;;;5058409;28;20473;-80
2021/07/06 06:45:07;;;;;;;3.00;2.20;;;21.60;99.90;;;;;;5058357;28;20471;-80
2021/07/06 06:47:34;;;;;;;2.10;2.00;;;21.60;99.90;;;;;;5057269;28;20454;-79
2021/07/06 06:50:01;;;;;;;3.53;2.40;;;21.70;99.90;;;;;;5057929;28;20449;-79
2021/07/06 06:52:27;;;;;;;3.30;2.17;;;21.70;99.90;;;;;;5058392;28;20473;-79
2021/07/06 06:54:54;;;;;;;5.13;3.03;;;21.80;99.90;;;;;;5059939;28;20512;-79
2021/07/06 06:57:22;;;;;;;3.40;3.10;;;21.80;99.90;;;;;;5058582;28;20974;-80
2021/07/06 06:59:49;;;;;;;2.33;2.23;;;21.90;99.90;;;;;;5060077;28;20532;-79
2021/07/06 07:02:19;;;;;;;3.30;3.00;;;22.00;99.90;;;;;;5059251;28;20465;-80
2021/07/06 07:04:47;;;;;;;1.70;1.60;;;22.00;99.90;;;;;;5058853;28;20434;-79
2021/07/06 07:07:14;;;;;;;2.33;2.13;;;22.10;99.90;;;;;;5059501;28;20454;-80
2021/07/06 07:09:42;;;;;;;2.40;2.20;;;22.20;99.90;;;;;;5061650;28;20441;-80
2021/07/06 07:12:09;;;;;;;2.70;2.17;;;22.30;99.90;;;;;;5058327;28;20854;-79
2021/07/06 07:14:38;;;;;;;3.10;2.30;;;22.30;99.90;;;;;;5057805;28;20964;-79
2021/07/06 07:17:05;;;;;;;5.07;2.40;;;22.40;99.90;;;;;;5056733;28;21007;-79
2021/07/06 07:19:33;;;;;;;2.77;2.57;;;22.40;99.90;;;;;;5056839;28;20944;-79
2021/07/06 07:22:00;;;;;;;2.47;2.03;;;22.40;99.90;;;;;;5058334;28;20499;-79
2021/07/06 07:24:26;;;;;;;4.00;3.20;;;22.50;99.90;;;;;;5058561;28;20474;-79
2021/07/06 07:26:53;;;;;;;3.37;3.07;;;22.60;99.90;;;;;;5057268;28;20953;-79
2021/07/06 07:29:19;;;;;;;2.70;2.27;;;22.60;99.90;;;;;;5059047;28;20474;-79
2021/07/06 07:31:47;;;;;;;5.30;3.27;;;22.80;99.90;;;;;;5057578;28;20531;-79
2021/07/06 07:34:14;;;;;;;2.60;2.40;;;22.90;99.90;;;;;;5057705;28;20941;-78
2021/07/06 07:36:41;;;;;;;1.60;1.50;;;23.00;99.90;;;;;;5058433;28;21074;-78
2021/07/06 07:39:08;;;;;;;1.77;1.67;;;23.10;99.90;;;;;;5059064;28;20451;-80
2021/07/06 07:41:36;;;;;;;3.43;1.73;;;23.30;99.90;;;;;;5057894;28;20451;-79
2021/07/06 07:44:04;;;;;;;1.57;1.47;;;23.20;99.90;;;;;;5057406;28;20953;-79
2021/07/06 07:46:31;;;;;;;1.80;1.70;;;23.20;99.90;;;;;;5057600;28;20439;-79
2021/07/06 07:49:02;;;;;;;1.50;1.40;;;23.20;99.90;;;;;;5057694;28;20484;-80
2021/07/06 07:51:29;;;;;;;1.80;1.40;;;23.00;99.90;;;;;;5057687;28;20440;-80
2021/07/06 07:53:55;;;;;;;2.10;1.90;;;23.10;99.90;;;;;;5059196;28;20452;-85
2021/07/06 07:56:22;;;;;;;3.43;2.00;;;23.20;99.90;;;;;;5061258;28;20895;-82
2021/07/06 07:58:48;;;;;;;2.10;1.90;;;23.20;99.90;;;;;;5060242;28;20940;-84
2021/07/06 08:01:15;;;;;;;2.10;1.97;;;23.30;99.90;;;;;;5061362;28;20448;-84
2021/07/06 08:03:42;;;;;;;2.40;2.20;;;23.30;99.90;;;;;;5059533;28;20820;-84
2021/07/06 08:06:12;;;;;;;1.90;1.70;;;23.30;99.90;;;;;;5057958;28;20445;-84
2021/07/06 08:08:39;;;;;;;2.77;1.90;;;23.40;99.90;;;;;;5057469;28;20961;-84
2021/07/06 08:11:17;;;;;;;5.37;1.87;;;23.50;99.90;;;;;;5060585;28;20443;-84
2021/07/06 08:13:45;;;;;;;1.80;1.70;;;23.50;99.90;;;;;;5060152;28;20479;-84
2021/07/06 08:16:11;;;;;;;2.33;2.23;;;23.60;99.90;;;;;;5060511;28;20500;-86
2021/07/06 08:18:38;;;;;;;2.33;1.70;;;23.60;99.90;;;;;;5059295;28;20911;-83
2021/07/06 08:21:05;;;;;;;2.73;2.53;;;23.60;99.90;;;;;;5062166;28;20950;-83
2021/07/06 08:23:33;;;;;;;4.60;2.73;;;23.60;99.90;;;;;;5059811;28;20492;-84
2021/07/06 08:25:59;;;;;;;2.43;2.30;;;23.70;99.90;;;;;;5066034;28;20479;-84
2021/07/06 08:28:27;;;;;;;2.17;1.97;;;23.70;99.90;;;;;;5067636;28;20453;-83
2021/07/06 08:30:54;;;;;;;2.23;1.90;;;23.70;99.90;;;;;;5067041;28;20448;-84
2021/07/06 08:33:21;;;;;;;1.80;1.70;;;23.80;99.90;;;;;;5095973;22;20504;-80
2021/07/06 08:35:47;;;;;;;2.50;1.63;;;23.80;99.90;;;;;;5075942;28;21041;-80
2021/07/06 08:38:14;;;;;;;4.70;4.03;;;23.90;99.90;;;;;;5072897;28;20505;-80
2021/07/06 08:40:43;;;;;;;8.00;4.80;;;24.00;99.90;;;;;;5073713;28;20472;-80
2021/07/06 08:43:11;;;;;;;11.20;7.93;;;24.00;99.90;;;;;;5074450;28;20500;-81
2021/07/06 08:45:37;;;;;;;3.53;3.23;;;24.10;99.90;;;;;;5074957;28;20444;-77
2021/07/06 08:48:04;;;;;;;5.67;2.87;;;24.10;99.90;;;;;;5073959;28;20488;-76
2021/07/06 08:50:31;;;;;;;3.00;2.80;;;24.20;99.90;;;;;;5074326;28;20444;-77
2021/07/06 08:53:13;;;;;;;2.47;2.13;;;24.30;99.90;;;;;;5074179;28;20541;-77
2021/07/06 08:55:40;;;;;;;2.67;2.47;;;24.30;99.90;;;;;;5074230;28;20468;-77
2021/07/06 08:58:07;;;;;;;5.43;3.63;;;24.30;99.90;;;;;;5074855;28;20448;-80
2021/07/06 09:00:34;;;;;;;4.63;4.23;;;24.30;99.90;;;;;;5078961;28;20456;-77
2021/07/06 09:03:03;;;;;;;5.60;5.10;;;24.40;99.90;;;;;;5080452;28;20815;-78
2021/07/06 09:05:31;;;;;;;6.13;5.40;;;24.40;99.90;;;;;;5079517;28;20946;-77
2021/07/06 09:07:59;;;;;;;2.63;2.27;;;;;;;;;;5078014;28;20958;-78
2021/07/06 09:10:27;;;;;;;3.07;2.80;;;24.50;99.90;;;;;;5075152;28;20814;-77
2021/07/06 09:12:54;;;;;;;7.90;4.80;;;24.60;99.90;;;;;;5075348;28;20461;-77
2021/07/06 09:15:26;;;;;;;2.70;2.13;;;24.60;99.90;;;;;;5075870;28;20480;-77
2021/07/06 09:18:15;;;;;;;3.77;3.47;;;24.60;99.90;;;;;;5075034;28;20486;-77
2021/07/06 09:20:44;;;;;;;3.20;2.90;;;24.60;99.90;;;;;;5074128;28;20433;-77
2021/07/06 09:23:22;;;;;;;3.03;2.60;;;24.70;99.90;;;;;;5074012;28;20534;-77
2021/07/06 09:26:07;;;;;;;2.33;2.23;;;25.60;99.90;;;;;;5073961;28;20452;-77
2021/07/06 09:28:37;;;;;;;3.00;1.67;;;24.80;99.90;;;;;;5073734;28;20457;-77
2021/07/06 09:31:27;;;;;;;1.40;1.30;;;24.90;99.90;;;;;;5073461;28;20831;-77
2021/07/06 09:33:57;;;;;;;1.97;1.87;;;24.90;99.90;;;;;;5074610;28;20525;-77
2021/07/06 09:36:30;;;;;;;2.90;2.00;;;25.00;99.90;;;;;;5075201;28;20534;-78
2021/07/06 09:39:09;;;;;;;3.10;1.90;;;25.00;99.90;;;;;;5074889;28;20441;-78
2021/07/06 09:41:36;;;;;;;4.37;2.57;;;25.00;99.90;;;;;;5074839;28;20461;-78
2021/07/06 09:44:25;;;;;;;3.67;3.37;;;25.00;99.90;;;;;;5074635;28;20791;-78
2021/07/06 09:46:55;;;;;;;2.07;1.97;;;25.00;99.90;;;;;;5074522;28;20454;-77
2021/07/06 09:49:25;;;;;;;1.63;1.53;;;25.10;99.90;;;;;;5074681;28;20439;-78
2021/07/06 09:51:53;;;;;;;1.97;1.20;;;25.20;99.90;;;;;;5074957;28;20514;-77
2021/07/06 09:54:29;;;;;;;17.20;13.50;;;25.20;99.90;;;;;;5074208;28;20440;-77
2021/07/06 09:57:05;;;;;;;6.93;5.93;;;25.30;99.90;;;;;;5073946;28;20480;-80
2021/07/06 09:59:31;;;;;;;2.43;2.23;;;25.30;99.90;;;;;;5074659;28;20429;-78
2021/07/06 10:02:03;;;;;;;1.90;1.73;;;25.40;99.90;;;;;;5078019;28;20464;-77
2021/07/06 10:04:30;;;;;;;1.73;1.63;;;25.50;99.90;;;;;;5079629;28;20493;-77
2021/07/06 10:06:58;;;;;;;4.27;3.17;;;25.60;99.90;;;;;;5079943;28;20441;-78
2021/07/06 10:09:26;;;;;;;8.10;6.77;;;25.60;99.90;;;;;;5075673;28;20445;-78
2021/07/06 10:11:53;;;;;;;2.80;2.33;;;25.70;99.90;;;;;;5075737;28;20525;-78
2021/07/06 10:14:20;;;;;;;2.10;2.00;;;25.60;99.90;;;;;;5074411;28;20452;-78
2021/07/06 10:16:47;;;;;;;1.53;1.43;;;26.00;99.90;;;;;;5074298;28;20488;-76
2021/07/06 10:19:15;;;;;;;2.80;1.40;;;26.00;99.90;;;;;;5079295;28;20445;-78
2021/07/06 10:21:42;;;;;;;10.17;5.90;;;26.00;99.90;;;;;;5077067;28;20453;-77
2021/07/06 10:24:08;;;;;;;2.70;2.03;;;26.00;99.90;;;;;;5077902;28;20461;-77
2021/07/06 10:26:40;;;;;;;1.00;0.90;;;26.00;99.90;;;;;;5078055;28;20440;-78
2021/07/06 10:29:07;;;;;;;7.17;6.47;;;26.00;99.90;;;;;;5079630;28;20772;-78
2021/07/06 10:31:42;;;;;;;5.13;4.63;;;26.10;99.90;;;;;;5081411;28;20449;-78
2021/07/06 10:34:21;;;;;;;2.80;1.93;;;26.10;99.90;;;;;;5082720;28;20460;-77
2021/07/06 10:36:48;;;;;;;4.20;1.20;;;26.10;99.90;;;;;;5081261;28;20523;-77
2021/07/06 10:39:16;;;;;;;2.43;2.23;;;26.20;99.90;;;;;;5077810;28;20448;-78
2021/07/06 10:41:56;;;;;;;3.03;2.80;;;26.20;99.90;;;;;;5078809;28;20877;-78
2021/07/06 10:44:33;;;;;;;6.27;3.63;;;26.30;99.90;;;;;;5079433;28;20516;-78
2021/07/06 10:46:59;;;;;;;3.87;3.20;;;26.20;99.90;;;;;;5078401;28;20421;-78
2021/07/06 10:49:35;;;;;;;4.10;2.80;;;26.40;99.90;;;;;;5078271;28;20445;-78
2021/07/06 10:52:04;;;;;;;3.87;3.57;;;26.40;99.90;;;;;;5077601;28;20492;-78
2021/07/06 10:54:33;;;;;;;4.13;3.10;;;26.50;99.90;;;;;;5079956;28;20448;-77
2021/07/06 10:57:13;;;;;;;2.90;2.53;;;26.50;99.90;;;;;;5076837;28;20485;-77
2021/07/06 10:59:39;;;;;;;1.57;1.47;;;26.50;99.90;;;;;;5077135;28;20429;-77
2021/07/06 11:02:07;;;;;;;2.60;1.50;;;26.50;99.90;;;;;;5075799;28;20469;-77
2021/07/06 11:05:04;;;;;;;2.40;1.70;;;26.60;99.90;;;;;;5076365;28;20544;-77
2021/07/06 11:07:53;;;;;;;1.60;1.50;;;26.50;99.90;;;;;;5076377;28;20418;-77
2021/07/06 11:10:21;;;;;;;1.60;1.50;;;26.60;99.90;;;;;;5077443;28;20430;-77
2021/07/06 11:12:51;;;;;;;4.60;1.57;;;26.60;99.90;;;;;;5076780;28;20460;-77
2021/07/06 11:15:29;;;;;;;5.30;4.47;;;26.70;99.90;;;;;;5077661;28;20428;-77
2021/07/06 11:18:02;;;;;;;2.43;2.23;;;26.60;99.90;;;;;;5077735;28;20552;-77
2021/07/06 11:20:39;;;;;;;6.20;3.67;;;26.90;99.90;;;;;;5077960;28;20442;-78
2021/07/06 11:23:06;;;;;;;4.93;4.43;;;26.90;99.90;;;;;;5077157;28;20857;-78
2021/07/06 11:25:45;;;;;;;3.63;3.33;;;26.90;99.90;;;;;;5078002;28;20831;-78
2021/07/06 11:28:14;;;;;;;5.50;5.00;;;27.00;99.90;;;;;;5076165;28;20467;-78
2021/07/06 11:30:43;;;;;;;9.77;8.63;;;26.90;99.90;;;;;;5076701;28;20452;-78
2021/07/06 11:33:11;;;;;;;3.40;3.10;;;27.00;99.90;;;;;;5075478;28;20480;-78
2021/07/06 11:35:41;;;;;;;2.57;2.37;;;27.10;99.90;;;;;;5075888;28;20830;-77
2021/07/06 11:38:10;;;;;;;2.20;2.00;;;27.10;99.90;;;;;;5075492;28;20437;-77
2021/07/06 11:40:39;;;;;;;1.77;1.57;;;27.20;99.90;;;;;;5075321;28;20437;-77
2021/07/06 11:43:08;;;;;;;1.90;1.73;;;27.20;99.90;;;;;;5075222;28;20497;-79
2021/07/06 11:45:35;;;;;;;6.57;5.90;;;27.30;99.90;;;;;;5076670;28;20476;-78
2021/07/06 11:48:10;;;;;;;5.03;4.63;;;27.40;99.90;;;;;;5080994;28;20437;-77
2021/07/06 11:50:40;;;;;;;5.03;1.57;;;27.50;99.90;;;;;;5082021;28;20425;-77
2021/07/06 11:53:07;;;;;;;1.50;1.40;;;27.50;99.90;;;;;;5081521;28;20550;-77
2021/07/06 11:55:36;;;;;;;6.30;5.70;;;27.50;99.90;;;;;;5082368;28;20920;-77
2021/07/06 11:58:04;;;;;;;4.10;3.43;;;27.50;99.90;;;;;;5083192;28;20488;-77
2021/07/06 12:00:33;;;;;;;4.03;3.50;;;27.50;99.90;;;;;;5083260;28;20448;-77
2021/07/06 12:03:16;;;;;;;5.60;5.10;;;27.50;99.90;;;;;;5083070;28;20472;-77
2021/07/06 12:05:45;;;;;;;2.70;2.53;;;27.60;99.90;;;;;;5083722;28;20444;-77
2021/07/06 12:08:16;;;;;;;5.50;4.30;;;27.70;99.90;;;;;;5077025;28;20445;-77
2021/07/06 12:11:08;;;;;;;6.23;5.63;;;27.80;99.90;;;;;;5075087;28;20810;-77
2021/07/06 12:13:37;;;;;;;10.87;7.80;;;27.80;99.90;;;;;;5060494;28;20501;-77
2021/07/06 12:16:07;;;;;;;6.47;5.53;;;27.70;99.90;;;;;;5076288;28;20499;-77
2021/07/06 12:18:35;;;;;;;2.83;2.63;;;27.80;99.90;;;;;;5076154;28;20450;-79
2021/07/06 12:21:07;;;;;;;13.17;11.57;;;27.70;99.90;;;;;;5083896;28;20433;-77
2021/07/06 12:23:36;;;;;;;3.03;2.73;;;27.80;99.90;;;;;;5077204;28;20522;-77
2021/07/06 12:26:04;;;;;;;6.17;5.57;;;27.60;99.90;;;;;;5076555;28;20446;-78
2021/07/06 12:28:31;;;;;;;4.13;3.50;;;27.50;99.90;;;;;;5076694;28;20481;-78
2021/07/06 12:31:23;;;;;;;8.20;4.67;;;27.50;99.90;;;;;;5076164;28;20449;-78
2021/07/06 12:34:06;;;;;;;3.50;2.50;;;27.60;99.90;;;;;;5077124;28;20482;-78
2021/07/06 12:36:35;;;;;;;2.27;2.07;;;27.70;99.90;;;;;;5075741;28;20552;-78
2021/07/06 12:39:13;;;;;;;7.37;5.73;;;27.70;99.90;;;;;;5075716;28;20488;-78
2021/07/06 12:41:41;;;;;;;2.70;2.33;;;27.70;99.90;;;;;;5075834;28;20496;-78
2021/07/06 12:44:09;;;;;;;7.13;3.40;;;27.60;99.90;;;;;;5076919;28;20631;-78
2021/07/06 12:46:35;;;;;;;4.17;3.40;;;27.70;99.90;;;;;;5076016;28;20819;-78
2021/07/06 12:49:02;;;;;;;3.70;3.40;;;27.70;99.90;;;;;;5075326;28;20593;-77
2021/07/06 12:51:29;;;;;;;4.47;2.30;;;27.70;99.90;;;;;;5075703;28;20452;-76
2021/07/06 12:53:58;;;;;;;3.07;2.77;;;27.70;99.90;;;;;;5075547;28;20500;-77
2021/07/06 12:56:27;;;;;;;8.63;7.73;;;27.70;99.90;;;;;;5075340;28;20475;-77
2021/07/06 12:58:54;;;;;;;8.50;7.60;;;27.50;99.90;;;;;;5079140;28;20552;-77
2021/07/06 13:01:34;;;;;;;2.93;2.73;;;27.50;99.90;;;;;;5082870;28;20446;-76
2021/07/06 13:04:01;;;;;;;3.47;3.17;;;27.60;99.90;;;;;;5082557;28;20469;-77
2021/07/06 13:06:28;;;;;;;7.13;6.40;;;27.60;99.90;;;;;;5080582;28;20537;-77
2021/07/06 13:08:54;;;;;;;2.87;2.60;;;27.60;99.90;;;;;;5077591;28;20858;-78
2021/07/06 13:11:27;;;;;;;4.23;3.83;;;27.70;99.90;;;;;;5076926;28;20476;-77
2021/07/06 13:13:54;;;;;;;2.00;1.83;;;27.70;99.90;;;;;;5076004;28;20465;-77
2021/07/06 13:16:29;;;;;;;1.80;1.70;;;27.80;99.90;;;;;;5075396;28;20528;-77
2021/07/06 13:18:58;;;;;;;1.80;1.70;;;28.00;99.90;;;;;;5074842;28;20484;-77
2021/07/06 13:21:29;;;;;;;2.40;2.20;;;28.10;99.90;;;;;;5075226;28;20446;-79
2021/07/06 13:23:59;;;;;;;2.27;1.83;;;28.10;99.90;;;;;;5077373;28;20478;-77
2021/07/06 13:26:27;;;;;;;3.43;3.07;;;28.10;99.90;;;;;;5081888;28;20429;-77
2021/07/06 13:28:56;;;;;;;2.47;2.13;;;28.20;99.90;;;;;;5080329;28;20473;-77
2021/07/06 13:31:24;;;;;;;2.90;1.83;;;28.20;99.90;;;;;;5075801;28;20452;-77